sensor_id;sensor_type;location;lat;lon;timestamp;temperature;humidity
11304;DHT22;5707;49.588;12.148;2023-03-14T00:01:11;8.30;99.90
11304;DHT22;5707;49.588;12.148;2023-03-14T00:03:37;8.30;99.90
11304;DHT22;5707;49.588;12.148;2023-03-14T00:06:03;8.30;99.90
11304;DHT22;5707;49.588;12.148;2023-03-14T00:08:29;8.30;99.90
11304;DHT22;5707;49.588;12.148;2023-03-14T00:10:55;8.30;99.90
11304;DHT22;5707;49.588;12.148;2023-03-14T00:13:22;8.30;99.90
11304;DHT22;5707;49.588;12.148;2023-03-14T00:15:48;8.30;99.90
11304;DHT22;5707;49.588;12.148;2023-03-14T00:18:14;8.30;99.90
11304;DHT22;5707;49.588;12.148;2023-03-14T00:20:39;8.30;99.90
11304;DHT22;5707;49.588;12.148;2023-03-14T00:23:05;8.30;99.90
11304;DHT22;5707;49.588;12.148;2023-03-14T00:25:30;8.30;99.90
11304;DHT22;5707;49.588;12.148;2023-03-14T00:27:56;8.30;99.90
11304;DHT22;5707;49.588;12.148;2023-03-14T00:30:21;8.30;99.90
11304;DHT22;5707;49.588;12.148;2023-03-14T00:32:47;8.30;99.90
11304;DHT22;5707;49.588;12.148;2023-03-14T00:35:12;8.10;99.90
11304;DHT22;5707;49.588;12.148;2023-03-14T00:37:38;8.00;99.90
11304;DHT22;5707;49.588;12.148;2023-03-14T00:40:04;7.90;99.90
11304;DHT22;5707;49.588;12.148;2023-03-14T00:42:31;7.90;99.90
11304;DHT22;5707;49.588;12.148;2023-03-14T00:44:57;7.90;99.90
11304;DHT22;5707;49.588;12.148;2023-03-14T00:47:23;7.90;99.90
11304;DHT22;5707;49.588;12.148;2023-03-14T00:49:48;7.90;99.90
11304;DHT22;5707;49.588;12.148;2023-03-14T00:52:14;7.90;99.90
11304;DHT22;5707;49.588;12.148;2023-03-14T00:54:39;8.00;99.90
11304;DHT22;5707;49.588;12.148;2023-03-14T00:57:05;7.90;99.90
11304;DHT22;5707;49.588;12.148;2023-03-14T00:59:30;7.90;99.90
11304;DHT22;5707;49.588;12.148;2023-03-14T01:01:56;8.00;99.90
11304;DHT22;5707;49.588;12.148;2023-03-14T01:04:21;8.00;99.90
11304;DHT22;5707;49.588;12.148;2023-03-14T01:06:47;8.00;99.90
11304;DHT22;5707;49.588;12.148;2023-03-14T01:09:13;8.00;99.90
11304;DHT22;5707;49.588;12.148;2023-03-14T01:11:38;8.00;99.90
11304;DHT22;5707;49.588;12.148;2023-03-14T01:14:04;8.10;99.90
11304;DHT22;5707;49.588;12.148;2023-03-14T01:16:33;8.10;99.90
11304;DHT22;5707;49.588;12.148;2023-03-14T01:18:59;8.10;99.90
11304;DHT22;5707;49.588;12.148;2023-03-14T01:21:27;8.10;99.90
11304;DHT22;5707;49.588;12.148;2023-03-14T01:23:54;8.20;99.90
11304;DHT22;5707;49.588;12.148;2023-03-14T01:26:21;8.20;99.90
11304;DHT22;5707;49.588;12.148;2023-03-14T01:28:49;8.30;99.90
11304;DHT22;5707;49.588;12.148;2023-03-14T01:31:16;8.50;99.90
11304;DHT22;5707;49.588;12.148;2023-03-14T01:33:42;8.50;99.90
11304;DHT22;5707;49.588;12.148;2023-03-14T01:36:08;8.50;99.90
11304;DHT22;5707;49.588;12.148;2023-03-14T01:38:35;8.50;99.90
11304;DHT22;5707;49.588;12.148;2023-03-14T01:41:02;8.50;99.90
11304;DHT22;5707;49.588;12.148;2023-03-14T01:43:28;8.40;99.90
11304;DHT22;5707;49.588;12.148;2023-03-14T01:49:02;8.30;99.90
11304;DHT22;5707;49.588;12.148;2023-03-14T01:51:41;8.30;99.90
11304;DHT22;5707;49.588;12.148;2023-03-14T01:56:50;8.20;99.90
11304;DHT22;5707;49.588;12.148;2023-03-14T01:59:18;8.10;99.90
11304;DHT22;5707;49.588;12.148;2023-03-14T02:01:46;8.10;99.90
11304;DHT22;5707;49.588;12.148;2023-03-14T02:04:13;8.10;99.90
11304;DHT22;5707;49.588;12.148;2023-03-14T02:06:47;8.10;99.90
11304;DHT22;5707;49.588;12.148;2023-03-14T02:09:14;8.20;99.90
11304;DHT22;5707;49.588;12.148;2023-03-14T02:11:40;8.20;99.90
11304;DHT22;5707;49.588;12.148;2023-03-14T02:14:05;8.10;99.90
11304;DHT22;5707;49.588;12.148;2023-03-14T02:16:32;8.00;99.90
11304;DHT22;5707;49.588;12.148;2023-03-14T02:18:59;8.00;99.90
11304;DHT22;5707;49.588;12.148;2023-03-14T02:27:00;8.00;99.90
11304;DHT22;5707;49.588;12.148;2023-03-14T02:29:27;8.00;99.90
11304;DHT22;5707;49.588;12.148;2023-03-14T02:31:53;8.00;99.90
11304;DHT22;5707;49.588;12.148;2023-03-14T02:34:19;8.00;99.90
11304;DHT22;5707;49.588;12.148;2023-03-14T02:36:45;8.00;99.90
11304;DHT22;5707;49.588;12.148;2023-03-14T02:39:18;8.00;99.90
11304;DHT22;5707;49.588;12.148;2023-03-14T02:41:46;8.00;99.90
11304;DHT22;5707;49.588;12.148;2023-03-14T02:44:14;8.00;99.90
11304;DHT22;5707;49.588;12.148;2023-03-14T02:46:40;8.00;99.90
11304;DHT22;5707;49.588;12.148;2023-03-14T02:49:08;8.00;99.90
11304;DHT22;5707;49.588;12.148;2023-03-14T02:51:35;8.00;99.90
11304;DHT22;5707;49.588;12.148;2023-03-14T02:54:01;8.00;99.90
11304;DHT22;5707;49.588;12.148;2023-03-14T02:56:27;8.00;99.90
11304;DHT22;5707;49.588;12.148;2023-03-14T02:58:53;8.00;99.90
11304;DHT22;5707;49.588;12.148;2023-03-14T03:01:18;8.00;99.90
11304;DHT22;5707;49.588;12.148;2023-03-14T03:03:44;7.90;99.90
11304;DHT22;5707;49.588;12.148;2023-03-14T03:06:09;8.00;99.90
11304;DHT22;5707;49.588;12.148;2023-03-14T03:08:35;7.90;99.90
11304;DHT22;5707;49.588;12.148;2023-03-14T03:11:01;7.90;99.90
11304;DHT22;5707;49.588;12.148;2023-03-14T03:13:27;8.00;99.90
11304;DHT22;5707;49.588;12.148;2023-03-14T03:15:53;8.00;99.90
11304;DHT22;5707;49.588;12.148;2023-03-14T03:18:18;8.00;99.90
11304;DHT22;5707;49.588;12.148;2023-03-14T03:20:44;7.90;99.90
11304;DHT22;5707;49.588;12.148;2023-03-14T03:23:09;7.90;99.90
11304;DHT22;5707;49.588;12.148;2023-03-14T03:25:35;7.90;99.90
11304;DHT22;5707;49.588;12.148;2023-03-14T03:28:01;7.90;99.90
11304;DHT22;5707;49.588;12.148;2023-03-14T03:30:26;7.90;99.90
11304;DHT22;5707;49.588;12.148;2023-03-14T03:32:52;7.90;99.90
11304;DHT22;5707;49.588;12.148;2023-03-14T03:35:17;7.90;99.90
11304;DHT22;5707;49.588;12.148;2023-03-14T03:37:43;7.90;99.90
11304;DHT22;5707;49.588;12.148;2023-03-14T03:40:09;7.80;99.90
11304;DHT22;5707;49.588;12.148;2023-03-14T03:42:35;7.80;99.90
11304;DHT22;5707;49.588;12.148;2023-03-14T03:45:02;7.80;99.90
11304;DHT22;5707;49.588;12.148;2023-03-14T03:47:28;7.80;99.90
11304;DHT22;5707;49.588;12.148;2023-03-14T03:49:55;7.80;99.90
11304;DHT22;5707;49.588;12.148;2023-03-14T03:52:20;7.80;99.90
11304;DHT22;5707;49.588;12.148;2023-03-14T03:54:46;7.80;99.90
11304;DHT22;5707;49.588;12.148;2023-03-14T03:57:11;7.80;99.90
11304;DHT22;5707;49.588;12.148;2023-03-14T03:59:37;7.80;99.90
11304;DHT22;5707;49.588;12.148;2023-03-14T04:02:05;7.80;99.90
11304;DHT22;5707;49.588;12.148;2023-03-14T04:04:31;7.80;99.90
11304;DHT22;5707;49.588;12.148;2023-03-14T04:06:56;7.80;99.90
11304;DHT22;5707;49.588;12.148;2023-03-14T04:09:22;7.80;99.90
11304;DHT22;5707;49.588;12.148;2023-03-14T04:11:47;7.70;99.90
11304;DHT22;5707;49.588;12.148;2023-03-14T04:14:13;7.70;99.90
11304;DHT22;5707;49.588;12.148;2023-03-14T04:16:38;7.60;99.90
11304;DHT22;5707;49.588;12.148;2023-03-14T04:19:04;7.60;99.90
11304;DHT22;5707;49.588;12.148;2023-03-14T04:21:29;7.60;99.90
11304;DHT22;5707;49.588;12.148;2023-03-14T04:23:55;7.50;99.90
11304;DHT22;5707;49.588;12.148;2023-03-14T04:26:21;7.50;99.90
11304;DHT22;5707;49.588;12.148;2023-03-14T04:28:46;7.40;99.90
11304;DHT22;5707;49.588;12.148;2023-03-14T04:31:15;7.40;99.90
11304;DHT22;5707;49.588;12.148;2023-03-14T04:33:41;7.40;99.90
11304;DHT22;5707;49.588;12.148;2023-03-14T04:36:07;7.40;99.90
11304;DHT22;5707;49.588;12.148;2023-03-14T04:38:33;7.40;99.90
11304;DHT22;5707;49.588;12.148;2023-03-14T04:40:59;7.40;99.90
11304;DHT22;5707;49.588;12.148;2023-03-14T04:43:25;7.40;99.90
11304;DHT22;5707;49.588;12.148;2023-03-14T04:45:53;7.40;99.90
11304;DHT22;5707;49.588;12.148;2023-03-14T04:48:18;7.30;99.90
11304;DHT22;5707;49.588;12.148;2023-03-14T04:50:45;7.30;99.90
11304;DHT22;5707;49.588;12.148;2023-03-14T04:53:11;7.20;99.90
11304;DHT22;5707;49.588;12.148;2023-03-14T04:55:37;7.20;99.90
11304;DHT22;5707;49.588;12.148;2023-03-14T04:58:02;7.10;99.90
11304;DHT22;5707;49.588;12.148;2023-03-14T05:00:28;7.10;99.90
11304;DHT22;5707;49.588;12.148;2023-03-14T05:02:54;7.00;99.90
11304;DHT22;5707;49.588;12.148;2023-03-14T05:05:19;7.00;99.90
11304;DHT22;5707;49.588;12.148;2023-03-14T05:07:45;7.00;99.90
11304;DHT22;5707;49.588;12.148;2023-03-14T05:10:10;7.00;99.90
11304;DHT22;5707;49.588;12.148;2023-03-14T05:12:36;6.90;99.90
11304;DHT22;5707;49.588;12.148;2023-03-14T05:15:02;6.90;99.90
11304;DHT22;5707;49.588;12.148;2023-03-14T05:17:27;6.90;99.90
11304;DHT22;5707;49.588;12.148;2023-03-14T05:19:53;6.90;99.90
11304;DHT22;5707;49.588;12.148;2023-03-14T05:22:18;6.90;99.90
11304;DHT22;5707;49.588;12.148;2023-03-14T05:24:44;6.80;99.90
11304;DHT22;5707;49.588;12.148;2023-03-14T05:27:10;6.80;99.90
11304;DHT22;5707;49.588;12.148;2023-03-14T05:29:35;6.80;99.90
11304;DHT22;5707;49.588;12.148;2023-03-14T05:32:01;6.80;99.90
11304;DHT22;5707;49.588;12.148;2023-03-14T05:34:26;6.70;99.90
11304;DHT22;5707;49.588;12.148;2023-03-14T05:36:52;6.80;99.90
11304;DHT22;5707;49.588;12.148;2023-03-14T05:39:18;6.70;99.90
11304;DHT22;5707;49.588;12.148;2023-03-14T05:41:43;6.70;99.90
11304;DHT22;5707;49.588;12.148;2023-03-14T05:44:09;6.80;99.90
11304;DHT22;5707;49.588;12.148;2023-03-14T05:46:34;6.90;99.90
11304;DHT22;5707;49.588;12.148;2023-03-14T05:49:00;6.90;99.90
11304;DHT22;5707;49.588;12.148;2023-03-14T05:51:25;6.90;99.90
11304;DHT22;5707;49.588;12.148;2023-03-14T05:53:51;7.00;99.90
11304;DHT22;5707;49.588;12.148;2023-03-14T05:56:16;6.90;99.90
11304;DHT22;5707;49.588;12.148;2023-03-14T05:58:42;7.00;99.90
11304;DHT22;5707;49.588;12.148;2023-03-14T06:01:08;7.00;99.90
11304;DHT22;5707;49.588;12.148;2023-03-14T06:03:34;7.00;99.90
11304;DHT22;5707;49.588;12.148;2023-03-14T06:06:00;7.10;99.90
11304;DHT22;5707;49.588;12.148;2023-03-14T06:08:26;7.10;99.90
11304;DHT22;5707;49.588;12.148;2023-03-14T06:10:52;7.20;99.90
11304;DHT22;5707;49.588;12.148;2023-03-14T06:13:18;7.10;99.90
11304;DHT22;5707;49.588;12.148;2023-03-14T06:15:44;7.20;99.90
11304;DHT22;5707;49.588;12.148;2023-03-14T06:18:10;7.20;99.90
11304;DHT22;5707;49.588;12.148;2023-03-14T06:20:36;7.30;99.90
11304;DHT22;5707;49.588;12.148;2023-03-14T06:23:05;7.30;99.90
11304;DHT22;5707;49.588;12.148;2023-03-14T06:25:31;7.30;99.90
11304;DHT22;5707;49.588;12.148;2023-03-14T06:27:57;7.30;99.90
11304;DHT22;5707;49.588;12.148;2023-03-14T06:30:22;7.40;99.90
11304;DHT22;5707;49.588;12.148;2023-03-14T06:32:48;7.40;99.90
11304;DHT22;5707;49.588;12.148;2023-03-14T06:35:13;7.50;99.90
11304;DHT22;5707;49.588;12.148;2023-03-14T06:37:39;7.60;99.90
11304;DHT22;5707;49.588;12.148;2023-03-14T06:40:05;7.60;99.90
11304;DHT22;5707;49.588;12.148;2023-03-14T06:42:32;7.80;99.90
11304;DHT22;5707;49.588;12.148;2023-03-14T06:44:58;7.90;99.90
11304;DHT22;5707;49.588;12.148;2023-03-14T06:47:24;8.00;99.90
11304;DHT22;5707;49.588;12.148;2023-03-14T06:49:49;8.00;99.90
11304;DHT22;5707;49.588;12.148;2023-03-14T06:52:15;8.10;99.90
11304;DHT22;5707;49.588;12.148;2023-03-14T06:54:40;8.20;99.90
11304;DHT22;5707;49.588;12.148;2023-03-14T06:57:06;8.30;99.90
11304;DHT22;5707;49.588;12.148;2023-03-14T06:59:32;8.30;99.90
11304;DHT22;5707;49.588;12.148;2023-03-14T07:01:57;8.40;99.90
11304;DHT22;5707;49.588;12.148;2023-03-14T07:04:23;8.40;99.90
11304;DHT22;5707;49.588;12.148;2023-03-14T07:06:48;8.50;99.90
11304;DHT22;5707;49.588;12.148;2023-03-14T07:09:15;8.50;99.90
11304;DHT22;5707;49.588;12.148;2023-03-14T07:11:42;8.60;99.90
11304;DHT22;5707;49.588;12.148;2023-03-14T07:14:08;8.50;99.90
11304;DHT22;5707;49.588;12.148;2023-03-14T07:16:33;8.60;99.90
11304;DHT22;5707;49.588;12.148;2023-03-14T07:19:00;8.60;99.90
11304;DHT22;5707;49.588;12.148;2023-03-14T07:21:26;8.60;99.90
11304;DHT22;5707;49.588;12.148;2023-03-14T07:23:51;8.60;99.90
11304;DHT22;5707;49.588;12.148;2023-03-14T07:26:17;8.70;99.90
11304;DHT22;5707;49.588;12.148;2023-03-14T07:28:42;8.70;99.90
11304;DHT22;5707;49.588;12.148;2023-03-14T07:31:08;8.90;99.90
11304;DHT22;5707;49.588;12.148;2023-03-14T07:33:34;9.10;99.90
11304;DHT22;5707;49.588;12.148;2023-03-14T07:35:59;9.30;99.90
11304;DHT22;5707;49.588;12.148;2023-03-14T07:38:25;9.40;99.90
11304;DHT22;5707;49.588;12.148;2023-03-14T07:40:57;9.40;99.90
11304;DHT22;5707;49.588;12.148;2023-03-14T07:43:22;9.50;99.90
11304;DHT22;5707;49.588;12.148;2023-03-14T07:45:48;9.50;99.90
11304;DHT22;5707;49.588;12.148;2023-03-14T07:48:13;9.50;99.90
11304;DHT22;5707;49.588;12.148;2023-03-14T07:50:39;9.60;99.90
11304;DHT22;5707;49.588;12.148;2023-03-14T07:53:04;9.60;99.90
11304;DHT22;5707;49.588;12.148;2023-03-14T07:55:30;9.70;99.90
11304;DHT22;5707;49.588;12.148;2023-03-14T07:57:55;9.70;99.90
11304;DHT22;5707;49.588;12.148;2023-03-14T08:00:21;9.80;99.90
11304;DHT22;5707;49.588;12.148;2023-03-14T08:02:47;9.90;99.90
11304;DHT22;5707;49.588;12.148;2023-03-14T08:05:12;9.90;99.90
11304;DHT22;5707;49.588;12.148;2023-03-14T08:07:38;9.90;99.90
11304;DHT22;5707;49.588;12.148;2023-03-14T08:10:04;9.90;99.90
11304;DHT22;5707;49.588;12.148;2023-03-14T08:12:30;9.90;99.90
11304;DHT22;5707;49.588;12.148;2023-03-14T08:14:55;10.10;99.90
11304;DHT22;5707;49.588;12.148;2023-03-14T08:17:21;10.10;99.90
11304;DHT22;5707;49.588;12.148;2023-03-14T08:19:47;10.20;99.90
11304;DHT22;5707;49.588;12.148;2023-03-14T08:22:12;10.10;99.90
11304;DHT22;5707;49.588;12.148;2023-03-14T08:24:38;10.10;99.90
11304;DHT22;5707;49.588;12.148;2023-03-14T08:27:03;10.10;99.90
11304;DHT22;5707;49.588;12.148;2023-03-14T08:29:29;10.10;99.90
11304;DHT22;5707;49.588;12.148;2023-03-14T08:31:54;10.10;99.90
11304;DHT22;5707;49.588;12.148;2023-03-14T08:34:21;10.20;99.90
11304;DHT22;5707;49.588;12.148;2023-03-14T08:36:46;10.30;99.90
11304;DHT22;5707;49.588;12.148;2023-03-14T08:39:12;10.50;99.90
11304;DHT22;5707;49.588;12.148;2023-03-14T08:41:37;10.60;99.90
11304;DHT22;5707;49.588;12.148;2023-03-14T08:44:07;10.80;99.90
11304;DHT22;5707;49.588;12.148;2023-03-14T08:46:33;10.90;99.90
11304;DHT22;5707;49.588;12.148;2023-03-14T08:48:58;11.00;99.90
11304;DHT22;5707;49.588;12.148;2023-03-14T08:51:24;11.00;99.90
11304;DHT22;5707;49.588;12.148;2023-03-14T08:53:50;11.10;99.90
11304;DHT22;5707;49.588;12.148;2023-03-14T08:56:16;11.20;99.90
11304;DHT22;5707;49.588;12.148;2023-03-14T08:58:41;11.30;99.90
11304;DHT22;5707;49.588;12.148;2023-03-14T09:01:09;11.40;99.90
11304;DHT22;5707;49.588;12.148;2023-03-14T09:03:35;11.70;99.90
11304;DHT22;5707;49.588;12.148;2023-03-14T09:06:05;12.00;99.90
11304;DHT22;5707;49.588;12.148;2023-03-14T09:08:31;12.10;99.90
11304;DHT22;5707;49.588;12.148;2023-03-14T09:10:57;12.30;99.90
11304;DHT22;5707;49.588;12.148;2023-03-14T09:13:23;12.30;99.90
11304;DHT22;5707;49.588;12.148;2023-03-14T09:15:52;12.30;99.90
11304;DHT22;5707;49.588;12.148;2023-03-14T09:18:18;12.30;99.90
11304;DHT22;5707;49.588;12.148;2023-03-14T09:20:44;12.20;99.90
11304;DHT22;5707;49.588;12.148;2023-03-14T09:23:09;12.20;99.90
11304;DHT22;5707;49.588;12.148;2023-03-14T09:25:35;12.30;99.90
11304;DHT22;5707;49.588;12.148;2023-03-14T09:28:00;12.30;99.90
11304;DHT22;5707;49.588;12.148;2023-03-14T09:30:26;12.40;99.90
11304;DHT22;5707;49.588;12.148;2023-03-14T09:32:52;12.40;99.90
11304;DHT22;5707;49.588;12.148;2023-03-14T09:35:17;12.40;99.90
11304;DHT22;5707;49.588;12.148;2023-03-14T09:37:43;12.30;99.90
11304;DHT22;5707;49.588;12.148;2023-03-14T09:40:16;12.50;99.90
11304;DHT22;5707;49.588;12.148;2023-03-14T09:42:42;12.60;99.90
11304;DHT22;5707;49.588;12.148;2023-03-14T09:45:26;12.90;99.90
11304;DHT22;5707;49.588;12.148;2023-03-14T09:47:54;13.30;99.90
11304;DHT22;5707;49.588;12.148;2023-03-14T09:50:21;13.40;99.90
11304;DHT22;5707;49.588;12.148;2023-03-14T09:52:49;13.10;99.90
11304;DHT22;5707;49.588;12.148;2023-03-14T09:55:19;12.80;99.90
11304;DHT22;5707;49.588;12.148;2023-03-14T09:57:48;12.60;99.90
11304;DHT22;5707;49.588;12.148;2023-03-14T10:00:23;12.60;99.90
11304;DHT22;5707;49.588;12.148;2023-03-14T10:02:57;12.60;99.90
11304;DHT22;5707;49.588;12.148;2023-03-14T10:05:25;12.70;99.90
11304;DHT22;5707;49.588;12.148;2023-03-14T10:07:53;12.90;99.90
11304;DHT22;5707;49.588;12.148;2023-03-14T10:10:20;12.90;99.90
11304;DHT22;5707;49.588;12.148;2023-03-14T10:12:48;12.70;99.90
11304;DHT22;5707;49.588;12.148;2023-03-14T10:15:15;12.50;99.90
11304;DHT22;5707;49.588;12.148;2023-03-14T10:17:49;12.30;99.90
11304;DHT22;5707;49.588;12.148;2023-03-14T10:20:35;12.30;99.90
11304;DHT22;5707;49.588;12.148;2023-03-14T10:23:24;12.50;99.90
11304;DHT22;5707;49.588;12.148;2023-03-14T10:28:37;13.30;99.90
11304;DHT22;5707;49.588;12.148;2023-03-14T10:31:03;13.90;99.90
11304;DHT22;5707;49.588;12.148;2023-03-14T10:33:33;14.50;99.90
11304;DHT22;5707;49.588;12.148;2023-03-14T10:36:01;14.70;99.90
11304;DHT22;5707;49.588;12.148;2023-03-14T10:38:30;14.50;99.90
11304;DHT22;5707;49.588;12.148;2023-03-14T10:40:56;14.10;99.90
11304;DHT22;5707;49.588;12.148;2023-03-14T10:43:31;14.00;99.90
11304;DHT22;5707;49.588;12.148;2023-03-14T10:45:59;14.00;99.90
11304;DHT22;5707;49.588;12.148;2023-03-14T10:51:19;13.70;99.90
11304;DHT22;5707;49.588;12.148;2023-03-14T10:56:23;13.30;99.90
11304;DHT22;5707;49.588;12.148;2023-03-14T10:58:51;13.00;99.90
11304;DHT22;5707;49.588;12.148;2023-03-14T11:01:22;13.00;99.90
11304;DHT22;5707;49.588;12.148;2023-03-14T11:04:15;12.80;99.90
11304;DHT22;5707;49.588;12.148;2023-03-14T11:07:09;12.80;99.90
11304;DHT22;5707;49.588;12.148;2023-03-14T11:09:59;12.90;99.90
11304;DHT22;5707;49.588;12.148;2023-03-14T11:12:53;13.30;99.90
11304;DHT22;5707;49.588;12.148;2023-03-14T11:23:01;14.20;99.90
11304;DHT22;5707;49.588;12.148;2023-03-14T11:25:41;14.40;99.90
11304;DHT22;5707;49.588;12.148;2023-03-14T11:33:37;15.00;99.90
11304;DHT22;5707;49.588;12.148;2023-03-14T11:36:08;15.10;99.90
11304;DHT22;5707;49.588;12.148;2023-03-14T11:38:52;15.10;99.90
11304;DHT22;5707;49.588;12.148;2023-03-14T11:41:24;15.10;99.90
11304;DHT22;5707;49.588;12.148;2023-03-14T11:43:55;15.30;99.90
11304;DHT22;5707;49.588;12.148;2023-03-14T11:46:39;15.10;99.90
11304;DHT22;5707;49.588;12.148;2023-03-14T11:49:38;14.70;99.90
11304;DHT22;5707;49.588;12.148;2023-03-14T11:54:58;15.30;99.90
11304;DHT22;5707;49.588;12.148;2023-03-14T11:57:25;15.60;99.90
11304;DHT22;5707;49.588;12.148;2023-03-14T12:08:49;15.60;99.90
11304;DHT22;5707;49.588;12.148;2023-03-14T12:11:57;15.80;99.90
11304;DHT22;5707;49.588;12.148;2023-03-14T12:14:26;16.00;99.90
11304;DHT22;5707;49.588;12.148;2023-03-14T12:19:42;16.10;99.90
11304;DHT22;5707;49.588;12.148;2023-03-14T12:22:19;15.90;99.90
11304;DHT22;5707;49.588;12.148;2023-03-14T12:24:53;15.40;99.90
11304;DHT22;5707;49.588;12.148;2023-03-14T12:27:43;14.90;99.90
11304;DHT22;5707;49.588;12.148;2023-03-14T12:30:39;14.50;99.90
11304;DHT22;5707;49.588;12.148;2023-03-14T12:35:48;13.70;99.90
11304;DHT22;5707;49.588;12.148;2023-03-14T12:38:43;13.40;99.90
11304;DHT22;5707;49.588;12.148;2023-03-14T12:41:19;13.00;99.90
11304;DHT22;5707;49.588;12.148;2023-03-14T12:43:46;12.60;99.90
11304;DHT22;5707;49.588;12.148;2023-03-14T12:48:45;12.30;99.90
11304;DHT22;5707;49.588;12.148;2023-03-14T12:51:19;12.20;99.90
11304;DHT22;5707;49.588;12.148;2023-03-14T12:53:54;12.10;99.90
11304;DHT22;5707;49.588;12.148;2023-03-14T12:56:26;12.30;99.90
11304;DHT22;5707;49.588;12.148;2023-03-14T13:01:53;12.80;99.90
11304;DHT22;5707;49.588;12.148;2023-03-14T13:04:27;12.80;99.90
11304;DHT22;5707;49.588;12.148;2023-03-14T13:06:56;12.80;99.90
11304;DHT22;5707;49.588;12.148;2023-03-14T13:09:34;12.60;99.90
11304;DHT22;5707;49.588;12.148;2023-03-14T13:12:09;12.60;99.90
11304;DHT22;5707;49.588;12.148;2023-03-14T13:14:40;12.60;99.90
11304;DHT22;5707;49.588;12.148;2023-03-14T13:17:11;12.90;99.90
11304;DHT22;5707;49.588;12.148;2023-03-14T13:19:38;13.40;99.90
11304;DHT22;5707;49.588;12.148;2023-03-14T13:22:06;13.90;99.90
11304;DHT22;5707;49.588;12.148;2023-03-14T13:24:39;14.20;99.90
11304;DHT22;5707;49.588;12.148;2023-03-14T13:27:05;14.40;99.90
11304;DHT22;5707;49.588;12.148;2023-03-14T13:29:41;14.60;99.90
11304;DHT22;5707;49.588;12.148;2023-03-14T13:32:19;14.80;99.90
11304;DHT22;5707;49.588;12.148;2023-03-14T13:34:45;14.80;99.90
11304;DHT22;5707;49.588;12.148;2023-03-14T13:37:23;14.80;99.90
11304;DHT22;5707;49.588;12.148;2023-03-14T13:39:54;14.70;99.90
11304;DHT22;5707;49.588;12.148;2023-03-14T13:42:28;14.40;99.90
11304;DHT22;5707;49.588;12.148;2023-03-14T13:44:55;14.40;99.90
11304;DHT22;5707;49.588;12.148;2023-03-14T13:47:23;14.50;99.90
11304;DHT22;5707;49.588;12.148;2023-03-14T13:49:50;14.50;99.90
11304;DHT22;5707;49.588;12.148;2023-03-14T13:52:37;14.50;99.90
11304;DHT22;5707;49.588;12.148;2023-03-14T13:55:04;14.40;99.90
11304;DHT22;5707;49.588;12.148;2023-03-14T13:57:51;14.40;99.90
11304;DHT22;5707;49.588;12.148;2023-03-14T14:00:23;14.20;99.90
11304;DHT22;5707;49.588;12.148;2023-03-14T14:02:56;13.90;99.90
11304;DHT22;5707;49.588;12.148;2023-03-14T14:05:22;13.60;99.90
11304;DHT22;5707;49.588;12.148;2023-03-14T14:07:50;13.30;99.90
11304;DHT22;5707;49.588;12.148;2023-03-14T14:10:17;13.10;99.90
11304;DHT22;5707;49.588;12.148;2023-03-14T14:12:54;13.20;99.90
11304;DHT22;5707;49.588;12.148;2023-03-14T14:15:26;13.20;99.90
11304;DHT22;5707;49.588;12.148;2023-03-14T14:17:55;13.00;99.90
11304;DHT22;5707;49.588;12.148;2023-03-14T14:20:33;12.60;99.90
11304;DHT22;5707;49.588;12.148;2023-03-14T14:23:05;12.20;99.90
11304;DHT22;5707;49.588;12.148;2023-03-14T14:25:32;11.70;99.90
11304;DHT22;5707;49.588;12.148;2023-03-14T14:27:58;11.20;99.90
11304;DHT22;5707;49.588;12.148;2023-03-14T14:30:29;10.50;99.90
11304;DHT22;5707;49.588;12.148;2023-03-14T14:33:11;9.80;99.90
11304;DHT22;5707;49.588;12.148;2023-03-14T14:35:37;9.50;99.90
11304;DHT22;5707;49.588;12.148;2023-03-14T14:38:11;9.40;99.90
11304;DHT22;5707;49.588;12.148;2023-03-14T14:40:46;9.70;99.90
11304;DHT22;5707;49.588;12.148;2023-03-14T14:43:21;10.10;99.90
11304;DHT22;5707;49.588;12.148;2023-03-14T14:45:50;10.50;99.90
11304;DHT22;5707;49.588;12.148;2023-03-14T14:48:22;10.70;99.90
11304;DHT22;5707;49.588;12.148;2023-03-14T14:50:58;10.80;99.90
11304;DHT22;5707;49.588;12.148;2023-03-14T14:53:39;10.60;99.90
11304;DHT22;5707;49.588;12.148;2023-03-14T14:56:21;10.40;99.90
11304;DHT22;5707;49.588;12.148;2023-03-14T14:58:50;10.30;99.90
11304;DHT22;5707;49.588;12.148;2023-03-14T15:03:48;10.00;99.90
11304;DHT22;5707;49.588;12.148;2023-03-14T15:06:16;9.80;99.90
11304;DHT22;5707;49.588;12.148;2023-03-14T15:08:46;9.60;99.90
11304;DHT22;5707;49.588;12.148;2023-03-14T15:11:18;9.40;99.90
11304;DHT22;5707;49.588;12.148;2023-03-14T15:13:44;9.30;99.90
11304;DHT22;5707;49.588;12.148;2023-03-14T15:16:11;9.20;99.90
11304;DHT22;5707;49.588;12.148;2023-03-14T15:18:37;9.20;99.90
11304;DHT22;5707;49.588;12.148;2023-03-14T15:21:02;9.10;99.90
11304;DHT22;5707;49.588;12.148;2023-03-14T15:23:28;9.10;99.90
11304;DHT22;5707;49.588;12.148;2023-03-14T15:25:54;9.00;99.90
11304;DHT22;5707;49.588;12.148;2023-03-14T15:28:22;9.00;99.90
11304;DHT22;5707;49.588;12.148;2023-03-14T15:30:50;8.90;99.90
11304;DHT22;5707;49.588;12.148;2023-03-14T15:33:16;8.80;99.90
11304;DHT22;5707;49.588;12.148;2023-03-14T15:35:42;8.90;99.90
11304;DHT22;5707;49.588;12.148;2023-03-14T15:38:12;8.80;99.90
11304;DHT22;5707;49.588;12.148;2023-03-14T15:40:39;8.70;99.90
11304;DHT22;5707;49.588;12.148;2023-03-14T15:43:05;8.60;99.90
11304;DHT22;5707;49.588;12.148;2023-03-14T15:45:30;8.50;99.90
11304;DHT22;5707;49.588;12.148;2023-03-14T15:47:56;8.50;99.90
11304;DHT22;5707;49.588;12.148;2023-03-14T15:50:22;8.60;99.90
11304;DHT22;5707;49.588;12.148;2023-03-14T15:52:47;8.90;99.90
11304;DHT22;5707;49.588;12.148;2023-03-14T15:55:13;8.90;99.90
11304;DHT22;5707;49.588;12.148;2023-03-14T15:57:43;8.90;99.90
11304;DHT22;5707;49.588;12.148;2023-03-14T16:00:15;8.70;99.90
11304;DHT22;5707;49.588;12.148;2023-03-14T16:02:43;8.70;99.90
11304;DHT22;5707;49.588;12.148;2023-03-14T16:05:11;8.50;99.90
11304;DHT22;5707;49.588;12.148;2023-03-14T16:07:37;8.30;99.90
11304;DHT22;5707;49.588;12.148;2023-03-14T16:10:03;8.20;99.90
11304;DHT22;5707;49.588;12.148;2023-03-14T16:12:30;8.10;99.90
11304;DHT22;5707;49.588;12.148;2023-03-14T16:14:55;8.10;99.90
11304;DHT22;5707;49.588;12.148;2023-03-14T16:17:21;8.20;99.90
11304;DHT22;5707;49.588;12.148;2023-03-14T16:19:46;8.20;99.90
11304;DHT22;5707;49.588;12.148;2023-03-14T16:22:12;8.20;99.90
11304;DHT22;5707;49.588;12.148;2023-03-14T16:24:38;8.20;99.90
11304;DHT22;5707;49.588;12.148;2023-03-14T16:27:03;8.20;99.90
11304;DHT22;5707;49.588;12.148;2023-03-14T16:29:29;8.10;99.90
11304;DHT22;5707;49.588;12.148;2023-03-14T16:31:55;7.90;99.90
11304;DHT22;5707;49.588;12.148;2023-03-14T16:34:21;7.80;99.90
11304;DHT22;5707;49.588;12.148;2023-03-14T16:36:46;7.70;99.90
11304;DHT22;5707;49.588;12.148;2023-03-14T16:39:12;7.60;99.90
11304;DHT22;5707;49.588;12.148;2023-03-14T16:41:38;7.50;99.90
11304;DHT22;5707;49.588;12.148;2023-03-14T16:44:03;7.50;99.90